Time;durP1;ratioP1;P1;durP2;ratioP2;P2;SDS_P1;SDS_P2;PMS_P1;PMS_P2;Temp;Humidity;BMP_temperature;BMP_pressure;BME280_temperature;BME280_humidity;BME280_pressure;Samples;Min_cycle;Max_cycle;Signal;HPM_P1;HPM_P2
2022/11/19 00:01:14;;;;;;;18.30;10.47;;;;;;;2.95;83.91;100414.16;5114060;28;20191;-71
2022/11/19 00:03:42;;;;;;;12.03;10.73;;;;;;;2.85;84.02;100410.22;5113518;28;20574;-71
2022/11/19 00:06:13;;;;;;;13.17;11.80;;;;;;;2.95;84.27;100406.22;5113824;28;20669;-71
2022/11/19 00:08:40;;;;;;;16.70;11.33;;;;;;;2.92;84.45;100408.13;5114121;28;20183;-71
2022/11/19 00:14:03;;;;;;;16.37;12.33;;;;;;;2.92;84.13;100431.94;5113352;28;20209;-71
2022/11/19 00:16:29;;;;;;;21.57;10.80;;;;;;;2.94;83.72;100428.31;5114010;28;20186;-71
2022/11/19 00:18:56;;;;;;;11.73;10.53;;;;;;;2.88;84.44;100433.88;5113467;28;20571;-71
2022/11/19 00:21:22;;;;;;;12.13;10.87;;;;;;;2.96;83.60;100422.94;5113131;28;20569;-71
2022/11/19 00:23:52;;;;;;;11.63;10.43;;;;;;;2.95;83.60;100426.53;5113923;28;20266;-71
2022/11/19 00:26:18;;;;;;;13.30;10.93;;;;;;;2.91;84.11;100427.59;5113369;28;20193;-71
2022/11/19 00:28:45;;;;;;;11.53;10.47;;;;;;;2.91;83.70;100431.09;5114680;28;20252;-71
2022/11/19 00:31:12;;;;;;;11.73;10.70;;;;;;;2.86;82.94;100435.72;5117874;28;20193;-71
2022/11/19 00:33:40;;;;;;;11.93;10.73;;;;;;;2.86;83.15;100434.88;5117272;28;20306;-71
2022/11/19 00:36:10;;;;;;;10.57;9.73;;;;;;;2.70;83.14;100439.97;5117494;28;20200;-71
2022/11/19 00:38:37;;;;;;;14.63;10.80;;;;;;;2.72;82.53;100441.63;5117239;28;20185;-71
2022/11/19 00:41:04;;;;;;;11.47;10.00;;;;;;;2.65;83.31;100441.97;5117159;28;20195;-71
2022/11/19 00:43:46;;;;;;;13.53;11.10;;;;;;;2.71;83.09;100439.94;5117600;28;20212;-71
2022/11/19 00:46:28;;;;;;;11.10;10.23;;;;;;;2.72;82.55;100451.34;5117379;28;20170;-71
2022/11/19 00:48:56;;;;;;;10.73;9.77;;;;;;;2.81;82.28;100443.03;5117272;28;20174;-71
2022/11/19 00:51:26;;;;;;;11.30;9.63;;;;;;;2.71;82.94;100452.28;5116992;28;20185;-71
2022/11/19 00:53:53;;;;;;;9.73;9.13;;;;;;;2.63;82.88;100454.38;5117185;28;20197;-71
2022/11/19 00:56:21;;;;;;;9.33;8.73;;;;;;;2.72;82.88;100454.00;5116926;28;20189;-71
2022/11/19 00:58:48;;;;;;;9.30;8.67;;;;;;;2.67;82.77;100451.53;5116843;28;20196;-71
2022/11/19 01:01:16;;;;;;;9.63;8.93;;;;;;;2.68;82.65;100449.75;5116978;28;20188;-71
2022/11/19 01:03:46;;;;;;;10.13;9.23;;;;;;;2.69;82.65;100460.28;5116959;28;20205;-71
2022/11/19 01:06:18;;;;;;;9.60;8.67;;;;;;;2.69;81.83;100455.00;5117005;28;20169;-71
2022/11/19 01:08:49;;;;;;;11.57;10.63;;;;;;;2.58;81.88;100466.94;5116947;28;20249;-71
2022/11/19 01:11:19;;;;;;;12.47;10.70;;;;;;;2.56;81.55;100461.72;5117238;28;20177;-71
2022/11/19 01:13:46;;;;;;;12.43;11.23;;;;;;;2.57;81.67;100466.09;5116504;28;20211;-71
2022/11/19 01:16:21;;;;;;;12.40;11.07;;;;;;;2.50;82.10;100477.84;5116511;28;20191;-71
2022/11/19 01:18:48;;;;;;;11.27;10.43;;;;;;;2.61;82.15;100480.91;5117127;28;20205;-71
2022/11/19 01:21:17;;;;;;;13.23;11.77;;;;;;;2.54;81.79;100482.09;5116241;28;20585;-71
2022/11/19 01:23:44;;;;;;;13.17;11.97;;;;;;;2.55;81.45;100492.59;5116255;28;20209;-71
2022/11/19 01:26:12;;;;;;;16.30;13.13;;;;;;;2.55;81.20;100489.94;5116343;28;20185;-71
2022/11/19 01:28:39;;;;;;;16.07;13.67;;;;;;;2.55;81.08;100487.31;5116529;28;20194;-71
2022/11/19 01:31:10;;;;;;;21.47;14.13;;;;;;;2.49;80.59;100490.22;5116519;28;20223;-71
2022/11/19 01:33:37;;;;;;;18.60;15.07;;;;;;;2.43;80.70;100500.19;5116724;28;20193;-71
2022/11/19 01:36:11;;;;;;;19.93;14.53;;;;;;;2.43;80.92;100489.63;5116426;28;20185;-71
2022/11/19 01:38:37;;;;;;;23.10;13.03;;;;;;;2.46;80.61;100492.97;5116702;28;20607;-71
2022/11/19 01:41:04;;;;;;;15.27;13.20;;;;;;;2.38;80.48;100489.81;5115172;28;20189;-71
2022/11/19 01:43:42;;;;;;;16.37;12.73;;;;;;;2.42;80.96;100487.88;5116107;28;20223;-71
2022/11/19 01:46:10;;;;;;;15.53;13.90;;;;;;;2.41;81.21;100496.75;5116252;28;20184;-71
2022/11/19 01:48:42;;;;;;;15.83;13.57;;;;;;;2.46;81.22;100494.75;5116142;28;20189;-71
2022/11/19 01:51:18;;;;;;;18.33;14.27;;;;;;;2.41;80.26;100497.59;5115895;28;20178;-71
2022/11/19 01:53:47;;;;;;;15.53;14.00;;;;;;;2.43;80.46;100494.91;5115854;28;20291;-72
2022/11/19 01:56:16;;;;;;;18.77;14.37;;;;;;;2.43;80.55;100501.03;5115714;28;20190;-71
2022/11/19 01:58:47;;;;;;;19.13;14.50;;;;;;;2.38;80.62;100502.16;5115991;28;20190;-71
2022/11/19 02:01:16;;;;;;;28.67;16.63;;;;;;;2.37;80.62;100511.00;5115941;28;20184;-71
2022/11/19 02:03:42;;;;;;;20.63;16.00;;;;;;;2.36;80.18;100514.56;5115991;28;20221;-71
2022/11/19 02:06:10;;;;;;;26.97;16.63;;;;;;;2.38;80.71;100515.38;5115803;28;20191;-71
2022/11/19 02:08:43;;;;;;;20.83;16.47;;;;;;;2.28;80.44;100520.19;5115475;28;20193;-71
2022/11/19 02:11:23;;;;;;;21.73;15.50;;;;;;;2.32;80.53;100519.09;5116029;28;20539;-71
2022/11/19 02:14:15;;;;;;;17.67;14.63;;;;;;;2.25;79.97;100525.56;5115399;28;20211;-71
2022/11/19 02:16:55;;;;;;;22.70;16.30;;;;;;;2.13;80.44;100526.91;5115742;28;20182;-72
2022/11/19 02:19:48;;;;;;;20.53;16.30;;;;;;;2.17;80.23;100530.31;5115595;28;20318;-71
2022/11/19 02:22:35;;;;;;;24.47;16.97;;;;;;;2.05;79.88;100510.53;5115026;28;20215;-70
2022/11/19 02:25:17;;;;;;;28.43;17.90;;;;;;;2.00;80.22;100516.00;5115405;28;20660;-71
2022/11/19 02:28:00;;;;;;;25.67;18.17;;;;;;;2.05;79.92;100519.31;5115708;28;20178;-71
2022/11/19 02:30:35;;;;;;;23.43;17.40;;;;;;;2.03;80.00;100521.16;5115645;28;20181;-71
2022/11/19 02:33:12;;;;;;;25.47;17.80;;;;;;;2.04;80.06;100525.53;5115213;28;20678;-71
2022/11/19 02:35:58;;;;;;;24.23;17.67;;;;;;;2.02;79.66;100521.22;5115572;28;20179;-71
2022/11/19 02:38:43;;;;;;;25.97;17.63;;;;;;;1.95;80.41;100515.31;5115199;28;20256;-71
2022/11/19 02:41:34;;;;;;;31.67;19.43;;;;;;;1.96;80.31;100518.81;5096684;28;20640;-71
2022/11/19 02:47:02;;;;;;;31.00;18.83;;;;;;;1.85;80.12;100512.19;5115065;28;20223;-71
2022/11/19 02:49:30;;;;;;;28.77;18.20;;;;;;;1.82;80.46;100507.03;5115064;28;20180;-71
2022/11/19 02:51:58;;;;;;;23.70;17.83;;;;;;;1.89;81.01;100515.56;5114474;28;20185;-71
2022/11/19 02:54:26;;;;;;;31.20;18.73;;;;;;;1.95;80.51;100517.13;5114543;28;20212;-71
2022/11/19 02:56:59;;;;;;;31.43;19.80;;;;;;;1.83;81.18;100534.28;5114864;28;20193;-71
2022/11/19 03:05:19;;;;;;;32.10;19.40;;;;;;;1.87;80.38;100522.72;5114491;28;20540;-71
2022/11/19 03:07:47;;;;;;;33.23;20.73;;;;;;;1.82;81.04;100541.38;5114723;28;20279;-71
2022/11/19 03:10:16;;;;;;;30.33;20.43;;;;;;;1.89;80.74;100532.28;5114597;28;20195;-71
2022/11/19 03:12:52;;;;;;;28.27;20.93;;;;;;;1.93;81.02;100525.09;5114471;28;20197;-70
2022/11/19 03:18:21;;;;;;;40.17;21.47;;;;;;;1.99;80.79;100523.97;5114534;28;20170;-71
2022/11/19 03:21:10;;;;;;;30.67;18.13;;;;;;;1.94;80.93;100534.75;5114367;28;20199;-71
2022/11/19 03:23:43;;;;;;;35.53;20.70;;;;;;;1.93;80.58;100533.00;5114204;28;20227;-71
2022/11/19 03:26:18;;;;;;;40.57;21.80;;;;;;;1.86;80.36;100540.31;5114703;28;20181;-71
2022/11/19 03:28:46;;;;;;;31.93;20.07;;;;;;;1.80;81.12;100532.63;5114331;28;20211;-71
2022/11/19 03:31:15;;;;;;;39.40;23.00;;;;;;;1.75;81.09;100541.63;5113981;28;20191;-71
2022/11/19 03:33:45;;;;;;;36.73;21.43;;;;;;;1.77;80.73;100537.16;5114006;28;20323;-71
2022/11/19 03:36:20;;;;;;;31.43;20.50;;;;;;;1.77;80.68;100545.06;5113933;28;20185;-71
2022/11/19 03:38:51;;;;;;;31.70;20.23;;;;;;;1.73;81.28;100541.72;5113955;28;20177;-71
2022/11/19 03:41:20;;;;;;;35.53;20.33;;;;;;;1.76;81.35;100544.22;5114447;28;20187;-71
2022/11/19 03:43:52;;;;;;;38.30;22.47;;;;;;;1.74;80.62;100543.41;5113725;28;20231;-70
2022/11/19 03:46:20;;;;;;;34.30;22.90;;;;;;;1.66;80.50;100550.78;5114115;28;20554;-70
2022/11/19 03:48:51;;;;;;;40.73;22.80;;;;;;;1.61;81.09;100543.03;5114086;28;20188;-70
2022/11/19 03:51:25;;;;;;;37.10;22.20;;;;;;;1.62;81.23;100550.03;5114364;28;20173;-70
2022/11/19 03:53:51;;;;;;;35.23;22.20;;;;;;;1.66;80.94;100548.16;5113712;28;20207;-70
2022/11/19 03:56:23;;;;;;;39.43;21.87;;;;;;;1.66;81.52;100551.63;5113711;28;20181;-70
2022/11/19 03:58:52;;;;;;;38.47;23.23;;;;;;;1.65;80.97;100563.13;5114017;28;20173;-71
2022/11/19 04:01:18;;;;;;;39.67;21.57;;;;;;;1.65;80.93;100557.84;5113662;28;20185;-71
2022/11/19 04:04:34;;;;;;;38.43;24.03;;;;;;;1.68;81.13;100560.38;5114913;28;20223;-71
2022/11/19 04:06:31;;;;;;;37.20;22.50;;;;;;;1.64;80.88;100556.09;5117910;28;20188;-71
2022/11/19 04:08:57;;;;;;;46.87;24.43;;;;;;;1.61;80.44;100565.94;5117862;28;20596;-71
2022/11/19 04:11:24;;;;;;;40.10;23.70;;;;;;;1.62;81.16;100563.22;5117805;28;20185;-71
2022/11/19 04:13:49;;;;;;;33.67;22.17;;;;;;;1.60;81.20;100572.13;5118040;28;20203;-71
2022/11/19 04:16:16;;;;;;;38.27;23.13;;;;;;;1.57;81.25;100582.78;5117981;28;20193;-71
2022/11/19 04:18:42;;;;;;;39.93;24.47;;;;;;;1.51;79.88;100580.38;5117664;28;20195;-71
2022/11/19 04:21:08;;;;;;;38.50;23.83;;;;;;;1.50;80.52;100574.25;5117653;28;20201;-71
2022/11/19 04:23:35;;;;;;;38.37;23.23;;;;;;;1.45;81.17;100579.69;5117555;28;20791;-71
2022/11/19 04:26:01;;;;;;;40.50;23.53;;;;;;;1.46;80.62;100578.78;5117803;28;20670;-71
2022/11/19 04:28:27;;;;;;;40.23;22.80;;;;;;;1.46;80.57;100581.41;5117513;28;20250;-71
2022/11/19 04:30:54;;;;;;;37.07;23.83;;;;;;;1.52;80.04;100580.31;5117446;28;20185;-71
2022/11/19 04:33:20;;;;;;;43.00;24.00;;;;;;;1.51;80.01;100590.91;5117324;28;20205;-70
2022/11/19 04:35:46;;;;;;;38.37;23.70;;;;;;;1.50;80.11;100584.78;5117371;28;20189;-70
2022/11/19 04:38:13;;;;;;;34.23;22.43;;;;;;;1.46;80.60;100589.34;5117250;28;20199;-70
2022/11/19 04:40:40;;;;;;;37.97;22.87;;;;;;;1.42;80.57;100590.34;5117300;28;20193;-70
2022/11/19 04:43:07;;;;;;;41.70;23.10;;;;;;;1.46;79.20;100591.09;5117081;28;20216;-70
2022/11/19 04:45:33;;;;;;;42.47;23.40;;;;;;;1.44;79.66;100582.41;5117212;28;20553;-71
2022/11/19 04:47:59;;;;;;;39.03;24.00;;;;;;;1.43;79.72;100596.47;5117175;28;20553;-71
2022/11/19 04:50:26;;;;;;;37.23;22.43;;;;;;;1.38;79.26;100603.72;5117107;28;20178;-71
2022/11/19 04:52:52;;;;;;;38.47;22.83;;;;;;;1.39;79.26;100600.13;5117147;28;20217;-71
2022/11/19 04:55:18;;;;;;;35.97;22.33;;;;;;;1.40;79.35;100607.16;5116962;28;20217;-71
2022/11/19 04:57:45;;;;;;;31.57;21.20;;;;;;;1.32;79.32;100606.56;5116968;28;20193;-71
2022/11/19 05:00:12;;;;;;;42.63;24.13;;;;;;;1.32;79.19;100612.72;5116987;28;20557;-71
2022/11/19 05:02:38;;;;;;;39.33;23.33;;;;;;;1.34;79.50;100616.16;5116960;28;20216;-71
2022/11/19 05:05:05;;;;;;;39.73;24.07;;;;;;;1.27;79.22;100610.25;5117027;28;20545;-71
2022/11/19 05:07:31;;;;;;;41.97;25.27;;;;;;;1.29;79.83;100610.16;5116752;28;20210;-71
2022/11/19 05:09:58;;;;;;;38.53;23.83;;;;;;;1.38;79.55;100615.13;5116708;28;20188;-71
2022/11/19 05:12:24;;;;;;;45.40;24.33;;;;;;;1.39;79.06;100614.22;5116574;28;20188;-71
2022/11/19 05:14:50;;;;;;;42.60;23.27;;;;;;;1.34;79.01;100607.38;5117108;28;20185;-71
2022/11/19 05:17:17;;;;;;;39.73;23.17;;;;;;;1.38;79.10;100616.91;5116521;28;20204;-71
2022/11/19 05:19:43;;;;;;;46.23;23.23;;;;;;;1.35;78.47;100625.78;5116527;28;20187;-71
2022/11/19 05:22:10;;;;;;;49.43;25.00;;;;;;;1.25;79.12;100624.41;5116327;28;20562;-71
2022/11/19 05:24:36;;;;;;;37.47;23.93;;;;;;;1.24;78.94;100626.16;5116322;28;20213;-71
2022/11/19 05:27:03;;;;;;;38.67;23.53;;;;;;;1.23;78.40;100637.63;5116378;28;20210;-71
2022/11/19 05:29:29;;;;;;;41.60;25.57;;;;;;;1.22;79.18;100628.00;5116627;28;20189;-71
2022/11/19 05:31:55;;;;;;;42.50;24.00;;;;;;;1.12;78.89;100634.50;5116516;28;20188;-71
2022/11/19 05:34:22;;;;;;;45.10;25.50;;;;;;;1.10;79.81;100638.94;5116455;28;20192;-71
2022/11/19 05:36:48;;;;;;;57.80;25.47;;;;;;;1.04;79.03;100639.19;5116213;28;20203;-71
2022/11/19 05:39:14;;;;;;;41.03;24.73;;;;;;;1.09;78.81;100647.78;5116124;28;20197;-71
2022/11/19 05:41:47;;;;;;;51.30;25.40;;;;;;;1.10;79.59;100646.84;5116084;28;20266;-71
2022/11/19 05:44:13;;;;;;;47.80;23.90;;;;;;;1.11;79.63;100637.19;5115934;28;20239;-70
2022/11/19 05:46:40;;;;;;;35.67;23.03;;;;;;;1.16;78.60;100646.66;5116070;28;20176;-71
2022/11/19 05:49:06;;;;;;;45.87;25.97;;;;;;;1.16;79.61;100645.81;5115945;28;20193;-71
2022/11/19 05:51:33;;;;;;;43.63;24.47;;;;;;;1.08;79.41;100653.09;5116142;28;20190;-71
2022/11/19 05:53:59;;;;;;;49.03;25.63;;;;;;;1.09;77.98;100642.50;5116046;28;20205;-71
2022/11/19 05:56:25;;;;;;;43.70;23.60;;;;;;;1.08;78.34;100643.44;5116377;28;20216;-71
2022/11/19 05:58:52;;;;;;;39.30;22.77;;;;;;;1.10;79.41;100657.41;5115772;28;20200;-71
2022/11/19 06:01:26;;;;;;;44.07;22.83;;;;;;;1.08;78.12;100663.66;5115708;28;20191;-71
2022/11/19 06:03:52;;;;;;;41.40;23.43;;;;;;;0.97;78.80;100651.69;5115569;28;20216;-70
2022/11/19 06:06:19;;;;;;;39.93;22.97;;;;;;;1.04;77.92;100657.63;5115593;28;20188;-70
2022/11/19 06:08:47;;;;;;;44.67;23.77;;;;;;;0.98;78.72;100657.81;5115853;28;20288;-71
2022/11/19 06:11:46;;;;;;;46.03;23.30;;;;;;;0.92;78.00;100658.03;5115494;28;20194;-71
2022/11/19 06:14:03;;;;;;;43.57;23.47;;;;;;;0.99;77.60;100663.06;5115360;28;20210;-71
2022/11/19 06:16:29;;;;;;;43.00;22.73;;;;;;;1.03;77.93;100671.72;5115382;28;20196;-71
2022/11/19 06:18:56;;;;;;;40.93;22.33;;;;;;;1.03;77.56;100669.06;5115299;28;20197;-71
2022/11/19 06:21:22;;;;;;;37.83;22.83;;;;;;;1.03;78.01;100677.88;5115405;28;20206;-71
2022/11/19 06:23:48;;;;;;;37.97;22.10;;;;;;;1.04;78.44;100687.50;5115120;28;20223;-71
2022/11/19 06:26:23;;;;;;;35.80;21.00;;;;;;;1.05;78.54;100681.31;5114950;28;20288;-71
2022/11/19 06:28:50;;;;;;;38.37;22.10;;;;;;;1.05;77.96;100685.72;5115267;28;20187;-71
2022/11/19 06:31:17;;;;;;;39.23;22.47;;;;;;;1.05;78.10;100689.25;5115705;28;20271;-71
2022/11/19 06:33:43;;;;;;;40.43;22.73;;;;;;;1.06;78.26;100692.72;5114872;28;20216;-70
2022/11/19 06:36:10;;;;;;;37.57;22.43;;;;;;;1.13;78.20;100693.41;5115334;28;20257;-70
2022/11/19 06:38:36;;;;;;;36.70;21.67;;;;;;;1.09;76.89;100689.13;5114950;28;20275;-71
2022/11/19 06:41:02;;;;;;;31.87;21.27;;;;;;;0.97;78.02;100691.25;5115749;28;20199;-72
2022/11/19 06:43:29;;;;;;;34.53;21.53;;;;;;;1.02;77.58;100689.31;5115041;28;20232;-71
2022/11/19 06:45:55;;;;;;;39.53;22.93;;;;;;;1.06;77.17;100698.00;5114815;28;20191;-71
2022/11/19 06:48:21;;;;;;;37.63;20.77;;;;;;;1.02;76.49;100691.94;5115326;28;20185;-71
2022/11/19 06:50:48;;;;;;;37.57;21.00;;;;;;;1.06;77.23;100701.50;5114740;28;20186;-71
2022/11/19 06:53:14;;;;;;;32.17;20.40;;;;;;;1.08;76.58;100700.56;5114620;28;20219;-71
2022/11/19 06:55:41;;;;;;;36.20;21.27;;;;;;;1.06;76.73;100701.50;5114612;28;20205;-71
2022/11/19 06:58:07;;;;;;;30.27;20.87;;;;;;;1.05;76.55;100701.53;5114540;28;20199;-71
2022/11/19 07:00:34;;;;;;;37.13;19.60;;;;;;;1.12;77.42;100723.28;5115080;28;20200;-71
2022/11/19 07:03:01;;;;;;;33.03;19.90;;;;;;;1.03;76.39;100713.91;5114364;28;20210;-71
2022/11/19 07:05:27;;;;;;;37.13;22.33;;;;;;;1.02;75.29;100723.59;5114473;28;20192;-71
2022/11/19 07:07:54;;;;;;;36.87;21.33;;;;;;;0.93;75.73;100718.63;5114432;28;20549;-72
2022/11/19 07:10:28;;;;;;;29.47;19.57;;;;;;;0.86;76.63;100727.63;5114648;28;20625;-71
2022/11/19 07:12:54;;;;;;;34.20;19.73;;;;;;;0.98;75.83;100729.00;5114492;28;20294;-70
2022/11/19 07:15:20;;;;;;;48.97;19.83;;;;;;;0.94;76.17;100730.91;5114643;28;20191;-71
2022/11/19 07:17:47;;;;;;;35.07;22.07;;;;;;;0.92;76.24;100732.72;5114202;28;20191;-71
2022/11/19 07:20:14;;;;;;;35.20;20.57;;;;;;;0.90;76.20;100742.44;5114073;28;20700;-71
2022/11/19 07:22:41;;;;;;;38.67;21.10;;;;;;;0.87;76.16;100736.44;5114481;28;20712;-70
2022/11/19 07:25:11;;;;;;;33.60;19.57;;;;;;;0.83;76.33;100736.50;5114286;28;20208;-70
2022/11/19 07:27:38;;;;;;;33.57;19.63;;;;;;;0.84;76.52;100738.25;5114954;28;20170;-71
2022/11/19 07:30:06;;;;;;;34.53;20.27;;;;;;;0.90;76.54;100739.81;5114295;28;20187;-71
2022/11/19 07:32:33;;;;;;;31.73;19.70;;;;;;;0.94;75.63;100744.09;5114238;28;20205;-71
2022/11/19 07:34:59;;;;;;;37.03;21.40;;;;;;;0.90;75.36;100753.00;5113962;28;20174;-71
2022/11/19 07:37:26;;;;;;;35.80;20.63;;;;;;;0.94;75.40;100757.28;5113598;28;20178;-71
2022/11/19 07:39:52;;;;;;;27.03;18.00;;;;;;;0.85;75.32;100760.19;5113343;28;20185;-71
2022/11/19 07:45:07;;;;;;;31.30;19.57;;;;;;;0.81;75.26;100758.56;5095539;28;20213;-71
2022/11/19 07:47:34;;;;;;;31.43;19.37;;;;;;;0.77;75.43;100765.72;5113614;28;20189;-71
2022/11/19 07:50:01;;;;;;;28.87;19.70;;;;;;;0.81;75.51;100766.47;5114064;28;20546;-71
2022/11/19 07:52:28;;;;;;;29.80;19.97;;;;;;;0.88;75.14;100767.13;5113639;28;20209;-70
2022/11/19 07:54:55;;;;;;;28.83;19.43;;;;;;;0.88;75.71;100777.69;5113708;28;20185;-70
2022/11/19 07:57:21;;;;;;;34.90;20.93;;;;;;;0.91;74.67;100774.94;5114109;28;20181;-70
2022/11/19 07:59:55;;;;;;;29.40;19.53;;;;;;;0.93;75.29;100787.16;5114228;28;20223;-71
2022/11/19 08:02:21;;;;;;;28.47;19.60;;;;;;;0.91;74.99;100780.22;5113570;28;20189;-70
2022/11/19 08:04:48;;;;;;;32.80;19.10;;;;;;;0.89;74.17;100789.94;5113590;28;20211;-71
2022/11/19 08:07:14;;;;;;;30.63;19.93;;;;;;;0.93;75.21;100784.53;5113853;28;20194;-71
2022/11/19 08:09:40;;;;;;;29.07;19.40;;;;;;;0.93;74.58;100787.16;5113852;28;20188;-71
2022/11/19 08:12:07;;;;;;;29.00;18.47;;;;;;;0.87;73.48;100790.00;5113993;28;20191;-71
2022/11/19 08:14:33;;;;;;;26.83;17.90;;;;;;;0.87;74.15;100791.78;5113712;28;20184;-71
2022/11/19 08:19:44;;;;;;;26.43;18.63;;;;;;;0.77;73.35;100799.97;5113884;28;20268;-71
2022/11/19 08:22:11;;;;;;;26.97;17.67;;;;;;;0.73;73.13;100813.28;5113450;28;20197;-71
2022/11/19 08:24:37;;;;;;;28.50;18.10;;;;;;;0.70;72.75;100810.75;5113676;28;20230;-71
2022/11/19 08:27:04;;;;;;;24.40;18.60;;;;;;;0.62;73.97;100808.31;5113992;28;20192;-71
2022/11/19 08:29:30;;;;;;;24.23;17.73;;;;;;;0.64;73.00;100809.13;5114015;28;20191;-71
2022/11/19 08:31:57;;;;;;;23.93;17.80;;;;;;;0.63;73.66;100813.56;5113492;28;20192;-71
2022/11/19 08:34:24;;;;;;;28.53;17.03;;;;;;;0.60;73.52;100815.44;5113331;28;20207;-70
2022/11/19 08:36:50;;;;;;;26.83;17.03;;;;;;;0.57;72.25;100812.84;5113907;28;20551;-70
2022/11/19 08:39:16;;;;;;;25.20;17.30;;;;;;;0.60;73.13;100811.00;5113294;28;20192;-70
2022/11/19 08:44:28;;;;;;;23.77;15.83;;;;;;;0.48;73.21;100815.75;5113154;28;20574;-70
2022/11/19 08:46:54;;;;;;;23.87;16.57;;;;;;;0.42;72.16;100817.66;5113440;28;20540;-71
2022/11/19 08:49:21;;;;;;;22.63;16.20;;;;;;;0.47;73.76;100814.91;5114216;28;20291;-71
2022/11/19 08:51:47;;;;;;;24.47;16.63;;;;;;;0.32;71.50;100826.75;5117086;28;20186;-70
2022/11/19 08:54:13;;;;;;;22.60;18.27;;;;;;;0.34;72.10;100834.63;5116783;28;20421;-70
2022/11/19 08:56:40;;;;;;;19.10;15.60;;;;;;;0.36;71.62;100825.75;5116938;28;20198;-70
2022/11/19 08:59:06;;;;;;;20.87;16.20;;;;;;;0.32;72.78;100828.50;5117114;28;20187;-70
2022/11/19 09:01:32;;;;;;;22.03;16.87;;;;;;;0.31;72.09;100838.19;5116868;28;20192;-70
2022/11/19 09:03:59;;;;;;;21.70;15.83;;;;;;;0.22;72.03;100841.06;5116773;28;20579;-71
2022/11/19 09:06:25;;;;;;;19.43;15.20;;;;;;;0.30;72.59;100843.50;5116943;28;20180;-71
2022/11/19 09:08:52;;;;;;;19.47;16.07;;;;;;;0.26;72.65;100850.59;5116953;28;20190;-71
2022/11/19 09:11:19;;;;;;;21.03;15.50;;;;;;;0.23;72.00;100849.84;5116645;28;20184;-70
2022/11/19 09:13:46;;;;;;;19.13;15.17;;;;;;;0.24;71.89;100855.06;5116540;28;20279;-71
2022/11/19 09:16:12;;;;;;;22.73;15.27;;;;;;;0.30;71.64;100857.53;5116633;28;20211;-71
2022/11/19 09:18:40;;;;;;;20.07;16.23;;;;;;;0.43;71.22;100860.66;5116786;28;20713;-71
2022/11/19 09:21:09;;;;;;;19.77;14.30;;;;;;;0.37;71.53;100864.34;5116305;28;20199;-71
2022/11/19 09:23:35;;;;;;;17.70;14.23;;;;;;;0.46;71.74;100857.13;5116340;28;20575;-70
2022/11/19 09:26:13;;;;;;;18.67;15.87;;;;;;;0.37;71.09;100861.72;5116387;28;20188;-70
2022/11/19 09:28:40;;;;;;;16.63;14.83;;;;;;;0.35;70.57;100858.25;5116892;28;20181;-70
2022/11/19 09:31:13;;;;;;;20.70;14.97;;;;;;;0.32;71.15;100874.16;5116288;28;20197;-70
2022/11/19 09:33:42;;;;;;;16.07;14.23;;;;;;;0.36;70.99;100867.00;5116308;28;20220;-70
2022/11/19 09:36:10;;;;;;;17.53;14.90;;;;;;;0.31;70.80;100864.53;5116794;28;20216;-70
2022/11/19 09:38:38;;;;;;;21.73;15.77;;;;;;;0.27;71.77;100864.66;5116405;28;20194;-71
2022/11/19 09:41:16;;;;;;;17.87;15.13;;;;;;;0.31;71.33;100864.53;5116343;28;20202;-70
2022/11/19 09:44:01;;;;;;;16.70;15.00;;;;;;;0.37;71.54;100874.03;5115881;28;20207;-71
2022/11/19 09:46:55;;;;;;;19.33;13.97;;;;;;;0.37;71.53;100876.66;5116240;28;20273;-71
2022/11/19 09:49:29;;;;;;;19.57;14.70;;;;;;;0.35;70.42;100871.44;5116245;28;20169;-71
2022/11/19 09:52:08;;;;;;;22.87;15.87;;;;;;;0.41;69.66;100886.22;5116508;28;20180;-70
2022/11/19 09:54:41;;;;;;;21.00;15.37;;;;;;;0.44;69.79;100888.75;5116117;28;20171;-70
2022/11/19 09:57:14;;;;;;;17.60;15.57;;;;;;;0.47;69.95;100891.31;5115838;28;20174;-70
2022/11/19 09:59:41;;;;;;;18.23;15.33;;;;;;;0.49;71.47;100893.91;5116070;28;20170;-69
2022/11/19 10:02:19;;;;;;;20.20;15.50;;;;;;;0.41;69.80;100902.88;5115213;28;20186;-70
2022/11/19 10:04:48;;;;;;;19.07;15.37;;;;;;;0.42;69.88;100899.31;5116160;28;20199;-70
2022/11/19 10:07:23;;;;;;;20.47;14.70;;;;;;;0.47;71.09;100900.97;5116070;28;20190;-70
2022/11/19 10:10:11;;;;;;;19.30;15.50;;;;;;;0.38;70.49;100905.59;5115871;28;20173;-70
2022/11/19 10:13:15;;;;;;;14.60;13.13;;;;;;;0.42;68.98;100904.59;5115423;28;20576;-70
2022/11/19 10:15:53;;;;;;;18.30;13.80;;;;;;;0.51;71.14;100906.13;5115436;28;20194;-70
2022/11/19 10:18:37;;;;;;;19.50;16.40;;;;;;;0.46;69.35;100907.16;5115898;28;20186;-70
2022/11/19 10:21:13;;;;;;;16.13;14.43;;;;;;;0.49;69.55;100907.06;5115564;28;20202;-70
2022/11/19 10:23:58;;;;;;;15.67;13.10;;;;;;;0.53;69.73;100900.81;5115657;28;20209;-69
2022/11/19 10:26:39;;;;;;;18.33;14.93;;;;;;;0.58;69.42;100898.91;5115543;28;20190;-70
2022/11/19 10:29:15;;;;;;;16.27;14.40;;;;;;;0.68;69.42;100896.91;5115514;28;20180;-70
2022/11/19 10:31:47;;;;;;;24.17;15.03;;;;;;;0.74;68.03;100908.13;5115161;28;20187;-70
2022/11/19 10:34:17;;;;;;;20.80;15.17;;;;;;;0.72;68.84;100909.94;5115118;28;20206;-70
2022/11/19 10:36:49;;;;;;;18.90;14.03;;;;;;;0.82;68.65;100906.13;5115652;28;20190;-71
2022/11/19 10:39:23;;;;;;;22.43;14.83;;;;;;;0.84;68.76;100906.94;5115195;28;20180;-70
2022/11/19 10:42:02;;;;;;;19.87;14.73;;;;;;;0.91;69.21;100907.66;5115496;28;20190;-70
2022/11/19 10:44:39;;;;;;;17.67;14.43;;;;;;;0.90;69.00;100902.41;5114742;28;20670;-70
2022/11/19 10:47:26;;;;;;;18.37;15.43;;;;;;;1.01;68.42;100905.59;5114780;28;20224;-70
2022/11/19 10:49:54;;;;;;;21.30;14.53;;;;;;;1.03;68.52;100904.66;5114831;28;20191;-70
2022/11/19 10:52:38;;;;;;;15.43;13.83;;;;;;;1.07;67.96;100908.03;5114603;28;20220;-69
2022/11/19 10:55:23;;;;;;;15.50;13.60;;;;;;;1.18;68.61;100905.09;5114662;28;20637;-70
2022/11/19 10:57:59;;;;;;;14.70;13.23;;;;;;;1.30;67.08;100902.09;5114914;28;20675;-70
2022/11/19 11:00:25;;;;;;;17.17;14.27;;;;;;;1.46;66.46;100894.53;5115174;28;20173;-71
2022/11/19 11:03:00;;;;;;;16.43;13.67;;;;;;;1.58;66.66;100896.81;5114664;28;20238;-70
2022/11/19 11:05:26;;;;;;;15.40;13.83;;;;;;;1.87;66.07;100890.59;5114746;28;20650;-70
2022/11/19 11:07:56;;;;;;;19.20;14.00;;;;;;;2.03;65.06;100883.00;5114300;28;20185;-70
2022/11/19 11:10:22;;;;;;;16.03;13.07;;;;;;;2.14;63.70;100887.91;5114641;28;20652;-70
2022/11/19 11:15:33;;;;;;;20.20;13.70;;;;;;;2.48;64.31;100892.03;5114883;28;20169;-70
2022/11/19 11:18:09;;;;;;;16.23;13.50;;;;;;;2.63;63.87;100896.75;5114543;28;20181;-70
2022/11/19 11:20:38;;;;;;;15.83;13.50;;;;;;;2.75;62.29;100888.38;5114107;28;20196;-70
2022/11/19 11:23:10;;;;;;;14.83;13.43;;;;;;;2.77;61.78;100889.16;5114077;28;20205;-70
2022/11/19 11:25:38;;;;;;;15.20;13.70;;;;;;;2.72;61.38;100890.28;5114602;28;20212;-70
2022/11/19 11:28:11;;;;;;;16.20;13.00;;;;;;;2.58;62.12;100896.06;5113988;28;20536;-70
2022/11/19 11:30:52;;;;;;;17.63;14.50;;;;;;;2.69;61.03;100895.69;5114601;28;20184;-70
2022/11/19 11:33:30;;;;;;;16.53;13.37;;;;;;;2.68;61.61;100892.19;5113983;28;20296;-70
2022/11/19 11:36:01;;;;;;;14.03;12.67;;;;;;;2.53;61.24;100888.28;5114239;28;20187;-70
2022/11/19 11:38:28;;;;;;;15.37;13.73;;;;;;;2.43;62.08;100894.81;5113981;28;20208;-70
2022/11/19 11:41:07;;;;;;;15.40;13.83;;;;;;;2.30;61.39;100882.97;5113872;28;20193;-70
2022/11/19 11:44:00;;;;;;;15.47;12.87;;;;;;;2.27;62.36;100888.34;5113567;28;20213;-70
2022/11/19 11:46:49;;;;;;;14.83;13.20;;;;;;;2.26;61.97;100889.28;5113729;28;20174;-70
2022/11/19 11:49:40;;;;;;;14.20;12.80;;;;;;;2.19;62.89;100890.41;5114303;28;20303;-70
2022/11/19 11:52:19;;;;;;;14.80;13.37;;;;;;;2.25;63.07;100892.81;5113905;28;20177;-70
2022/11/19 11:55:00;;;;;;;17.70;13.70;;;;;;;2.29;62.73;100891.81;5113726;28;20268;-70
2022/11/19 11:57:36;;;;;;;15.23;13.70;;;;;;;2.24;62.11;100889.31;5114074;28;20612;-70